createdAt,value
2019-02-14T00:00:09.576Z,99.99
2019-02-14T00:01:09.578Z,99.99
2019-02-14T00:02:10.990Z,99.99
2019-02-14T00:03:12.398Z,99.99
2019-02-14T00:04:13.089Z,99.99
2019-02-14T00:05:17.784Z,99.99
2019-02-14T00:06:18.501Z,99.99
2019-02-14T00:07:19.205Z,99.48
2019-02-14T00:08:20.040Z,99.01
2019-02-14T00:09:20.447Z,99.19
2019-02-14T00:10:21.414Z,98.82
2019-02-14T00:11:21.817Z,98.63
2019-02-14T00:12:22.221Z,98.72
2019-02-14T00:13:23.348Z,98.44
2019-02-14T00:14:24.315Z,98.82
2019-02-14T00:15:25.757Z,98.53
2019-02-14T00:16:26.717Z,99.48
2019-02-14T00:17:26.847Z,99.48
2019-02-14T00:18:27.402Z,99.29
2019-02-14T00:19:28.811Z,99.95
2019-02-14T00:20:29.620Z,99.99
2019-02-14T00:21:31.309Z,99.99
2019-02-14T00:22:31.713Z,99.99
2019-02-14T00:23:32.435Z,99.99
2019-02-14T00:24:33.434Z,99.99
2019-02-14T00:25:34.119Z,99.99
2019-02-14T00:26:34.800Z,99.99
2019-02-14T00:27:35.215Z,99.99
2019-02-14T00:28:36.609Z,99.99
2019-02-14T00:29:37.295Z,99.99
2019-02-14T00:30:38.536Z,99.95
2019-02-14T00:31:39.500Z,99.95
2019-02-14T00:32:40.742Z,99.99
2019-02-14T00:33:41.577Z,99.99
2019-02-14T00:34:42.543Z,99.99
2019-02-14T00:35:43.228Z,99.99
2019-02-14T00:36:44.355Z,99.99
2019-02-14T00:37:45.038Z,99.99
2019-02-14T00:38:45.852Z,99.99
2019-02-14T00:39:46.260Z,99.99
2019-02-14T00:40:47.394Z,99.99
2019-02-14T00:41:48.360Z,99.99
2019-02-14T00:42:49.057Z,99.99
2019-02-14T00:43:50.297Z,99.99
2019-02-14T00:44:50.717Z,99.99
2019-02-14T00:45:51.396Z,99.99
2019-02-14T00:46:51.814Z,99.99
2019-02-14T00:47:53.224Z,99.99
2019-02-14T00:48:54.352Z,99.99
2019-02-14T00:49:54.805Z,99.99
2019-02-14T00:50:56.247Z,99.99
2019-02-14T00:51:57.372Z,99.99
2019-02-14T00:52:58.509Z,99.99
2019-02-14T00:53:59.471Z,99.99
2019-02-14T00:54:59.876Z,99.99
2019-02-14T00:56:00.172Z,99.99
2019-02-14T00:57:01.136Z,99.85
2019-02-14T00:58:01.266Z,99.99
2019-02-14T00:59:02.396Z,99.99
2019-02-14T01:00:02.637Z,99.19
2019-02-14T01:01:03.656Z,99.38
2019-02-14T01:02:03.785Z,99.29
2019-02-14T01:03:04.475Z,99.1
2019-02-14T01:04:05.209Z,99.29
2019-02-14T01:05:05.619Z,99.48
2019-02-14T01:06:07.059Z,99.99
2019-02-14T01:07:07.758Z,99.99
2019-02-14T01:08:08.446Z,99.99
2019-02-14T01:09:09.837Z,99.99
2019-02-14T01:10:10.800Z,99.99
2019-02-14T01:11:11.487Z,99.99
2019-02-14T01:12:11.897Z,99.99
2019-02-14T01:13:12.304Z,99.99
2019-02-14T01:14:12.709Z,99.99
2019-02-14T01:15:13.945Z,99.99
2019-02-14T01:16:14.074Z,99.99
2019-02-14T01:17:14.757Z,99.99
2019-02-14T01:18:15.232Z,99.99
2019-02-14T01:19:16.260Z,99.99
2019-02-14T01:20:16.953Z,99.99
2019-02-14T01:21:17.358Z,99.99
2019-02-14T01:22:18.321Z,99.99
2019-02-14T01:23:19.726Z,99.99
2019-02-14T01:24:20.409Z,99.99
2019-02-14T01:25:20.580Z,99.99
2019-02-14T01:26:20.981Z,99.99
2019-02-14T01:27:21.944Z,99.99
2019-02-14T01:28:23.096Z,98.77
2019-02-14T01:29:23.506Z,98.48
2019-02-14T01:30:24.191Z,97.82
2019-02-14T01:31:25.157Z,97.91
2019-02-14T01:32:25.843Z,98.01
2019-02-14T01:33:27.255Z,98.2
2019-02-14T01:34:27.660Z,97.63
2019-02-14T01:35:28.387Z,97.72
2019-02-14T01:36:28.351Z,97.44
2019-02-14T01:37:29.592Z,97.82
2019-02-14T01:38:30.720Z,97.91
2019-02-14T01:39:31.255Z,98.01
2019-02-14T01:40:32.219Z,98.48
2019-02-14T01:41:33.459Z,98.67
2019-02-14T01:42:34.144Z,98.63
2019-02-14T01:43:34.552Z,99.29
2019-02-14T01:44:35.240Z,99.57
2019-02-14T01:45:35.461Z,99.1
2019-02-14T01:46:36.423Z,99.57
2019-02-14T01:47:37.107Z,99.95
2019-02-14T01:48:38.515Z,99.99
2019-02-14T01:49:39.330Z,99.1
2019-02-14T01:50:40.016Z,99.29
2019-02-14T01:51:40.424Z,99.99
2019-02-14T01:52:40.944Z,99.99
2019-02-14T01:53:41.352Z,99.99
2019-02-14T01:54:42.317Z,99.99
2019-02-14T01:55:43.000Z,99.85
2019-02-14T01:56:43.407Z,99.48
2019-02-14T01:57:44.538Z,99.99
2019-02-14T01:58:45.221Z,99.48
2019-02-14T01:59:45.391Z,99.29
2019-02-14T02:00:45.796Z,99.19
2019-02-14T02:01:46.928Z,99.1
2019-02-14T02:02:47.886Z,99.19
2019-02-14T02:03:48.294Z,99.1
2019-02-14T02:04:48.700Z,99.29
2019-02-14T02:05:51.979Z,99.29
2019-02-14T02:06:51.947Z,99.1
2019-02-14T02:07:53.185Z,99.48
2019-02-14T02:08:54.868Z,99.57
2019-02-14T02:09:55.286Z,99.01
2019-02-14T02:10:56.819Z,99.29
2019-02-14T02:11:56.796Z,99.1
2019-02-14T02:12:57.496Z,99.99
2019-02-14T02:13:58.218Z,99.48
2019-02-14T02:14:59.182Z,99.85
2019-02-14T02:15:59.815Z,99.95
2019-02-14T02:16:59.943Z,99.99
2019-02-14T02:18:00.630Z,99.99
2019-02-14T02:19:01.037Z,99.99
2019-02-14T02:20:02.426Z,99.99
2019-02-14T02:21:02.394Z,99.99
2019-02-14T02:22:03.098Z,99.95
2019-02-14T02:23:04.061Z,99.99
2019-02-14T02:24:04.588Z,99.99
2019-02-14T02:25:04.828Z,99.99
2019-02-14T02:26:05.793Z,99.85
2019-02-14T02:27:06.752Z,99.99
2019-02-14T02:28:06.991Z,99.95
2019-02-14T02:29:07.518Z,99.76
2019-02-14T02:30:08.801Z,99.99
2019-02-14T02:31:09.616Z,99.99
2019-02-14T02:32:09.855Z,99.99
2019-02-14T02:33:10.259Z,99.99
2019-02-14T02:34:11.223Z,99.9
2019-02-14T02:35:12.499Z,99.8
2019-02-14T02:36:12.935Z,99.8
2019-02-14T02:37:13.901Z,98.67
2019-02-14T02:38:15.345Z,98.29
2019-02-14T02:39:15.796Z,98.48
2019-02-14T02:40:17.443Z,98.39
2019-02-14T02:41:17.863Z,98.67
2019-02-14T02:42:18.580Z,98.29
2019-02-14T02:43:19.543Z,98.77
2019-02-14T02:44:20.254Z,99.24
2019-02-14T02:45:21.515Z,98.86
2019-02-14T02:46:22.034Z,98.58
2019-02-14T02:47:22.999Z,98.48
2019-02-14T02:48:23.965Z,98.29
2019-02-14T02:49:24.246Z,98.2
2019-02-14T02:50:25.227Z,97.91
2019-02-14T02:51:25.233Z,98.58
2019-02-14T02:52:26.585Z,98.67
2019-02-14T02:53:26.548Z,98.77
2019-02-14T02:54:27.518Z,99.15
2019-02-14T02:55:28.478Z,99.24
2019-02-14T02:56:28.780Z,98.86
2019-02-14T02:57:29.297Z,98.67
2019-02-14T02:58:29.981Z,99.15
2019-02-14T02:59:30.968Z,99.33
2019-02-14T03:00:31.928Z,98.39
2019-02-14T03:01:32.670Z,99.15
2019-02-14T03:02:32.640Z,99.24
2019-02-14T03:03:33.892Z,99.8
2019-02-14T03:04:34.860Z,99.62
2019-02-14T03:05:35.985Z,99.62
2019-02-14T03:06:36.229Z,99.52
2019-02-14T03:07:36.743Z,99.43
2019-02-14T03:08:36.740Z,99.43
2019-02-14T03:09:38.148Z,99.52
2019-02-14T03:10:38.970Z,99.24
2019-02-14T03:11:39.491Z,99.43
2019-02-14T03:12:40.453Z,99.33
2019-02-14T03:13:42.283Z,98.96
2019-02-14T03:14:42.573Z,99.8
2019-02-14T03:15:43.000Z,99.8
2019-02-14T03:16:44.130Z,99.52
2019-02-14T03:17:45.665Z,99.9
2019-02-14T03:18:46.183Z,99.99
2019-02-14T03:19:46.665Z,99.8
2019-02-14T03:20:47.498Z,99.33
2019-02-14T03:21:48.631Z,99.99
2019-02-14T03:22:50.086Z,99.99
2019-02-14T03:23:50.493Z,99.99
2019-02-14T03:24:50.901Z,99.99
2019-02-14T03:25:52.148Z,99.99
2019-02-14T03:26:53.115Z,99.99
2019-02-14T03:27:54.080Z,99.99
2019-02-14T03:28:54.488Z,99.99
2019-02-14T03:29:55.180Z,99.99
2019-02-14T03:30:56.294Z,99.99
2019-02-14T03:31:57.814Z,99.99
2019-02-14T03:32:58.706Z,99.99
2019-02-14T03:33:59.694Z,99.99
2019-02-14T03:35:00.508Z,99.99
2019-02-14T03:36:01.025Z,99.71
2019-02-14T03:37:01.448Z,99.99
2019-02-14T03:38:02.405Z,99.99
2019-02-14T03:39:03.092Z,99.99
2019-02-14T03:40:04.056Z,99.99
2019-02-14T03:41:05.154Z,99.99
2019-02-14T03:42:05.559Z,99.99
2019-02-14T03:43:06.521Z,99.99
2019-02-14T03:44:07.205Z,99.99
2019-02-14T03:45:07.609Z,99.99
2019-02-14T03:46:08.015Z,99.99
2019-02-14T03:47:08.984Z,99.99
2019-02-14T03:48:09.673Z,99.99
2019-02-14T03:49:10.366Z,99.99
2019-02-14T03:50:11.611Z,99.99
2019-02-14T03:51:12.004Z,99.99
2019-02-14T03:52:12.749Z,99.99
2019-02-14T03:53:13.177Z,99.99
2019-02-14T03:54:13.864Z,99.99
2019-02-14T03:55:15.272Z,99.99
2019-02-14T03:56:15.851Z,99.99
2019-02-14T03:57:16.536Z,99.99
2019-02-14T03:58:17.052Z,99.99
2019-02-14T03:59:17.738Z,99.99
2019-02-14T04:00:18.702Z,99.99
2019-02-14T04:01:19.248Z,99.99
2019-02-14T04:02:19.374Z,99.99
2019-02-14T04:03:20.071Z,99.99
2019-02-14T04:04:21.595Z,99.99
2019-02-14T04:05:21.727Z,99.99
2019-02-14T04:06:28.735Z,99.99
2019-02-14T04:06:34.218Z,99.99
2019-02-14T04:07:34.750Z,99.99
2019-02-14T04:08:35.436Z,99.99
2019-02-14T04:09:36.395Z,99.99
2019-02-14T04:10:37.108Z,99.99
2019-02-14T04:11:37.516Z,99.99
2019-02-14T04:12:37.960Z,99.99
2019-02-14T04:13:38.640Z,99.99
2019-02-14T04:14:39.044Z,99.99
2019-02-14T04:15:39.732Z,99.99
2019-02-14T04:16:40.200Z,99.99
2019-02-14T04:17:40.742Z,99.99
2019-02-14T04:18:41.710Z,99.99
2019-02-14T04:19:42.113Z,99.99
2019-02-14T04:20:43.800Z,99.99
2019-02-14T04:21:44.210Z,99.99
2019-02-14T04:22:44.617Z,99.99
2019-02-14T04:23:45.069Z,99.99
2019-02-14T04:24:45.475Z,99.99
2019-02-14T04:25:45.927Z,99.99
2019-02-14T04:26:46.613Z,99.99
2019-02-14T04:27:47.417Z,99.99
2019-02-14T04:28:47.829Z,99.99
2019-02-14T04:29:48.792Z,99.99
2019-02-14T04:30:49.485Z,99.99
2019-02-14T04:31:50.169Z,99.99
2019-02-14T04:32:50.346Z,99.99
2019-02-14T04:33:51.035Z,99.99
2019-02-14T04:34:52.013Z,99.99
2019-02-14T04:35:53.182Z,99.99
2019-02-14T04:36:55.454Z,99.99
2019-02-14T04:37:55.173Z,99.99
2019-02-14T04:38:55.857Z,99.99
2019-02-14T04:39:56.541Z,99.99
2019-02-14T04:40:57.229Z,99.99
2019-02-14T04:41:56.909Z,99.99
2019-02-14T04:42:57.600Z,99.99
2019-02-14T04:43:58.724Z,99.99
2019-02-14T04:44:59.855Z,99.99
2019-02-14T04:46:00.632Z,99.99
2019-02-14T04:47:00.878Z,99.99
2019-02-14T04:48:01.984Z,99.99
2019-02-14T04:50:02.855Z,99.99
2019-02-14T04:51:03.817Z,99.99
2019-02-14T04:52:04.503Z,99.99
2019-02-14T04:53:04.912Z,99.99
2019-02-14T04:54:05.876Z,99.99
2019-02-14T04:55:06.009Z,99.99
2019-02-14T04:56:06.976Z,99.99
2019-02-14T04:57:07.109Z,99.99
2019-02-14T04:58:07.676Z,99.99
2019-02-14T04:59:08.133Z,99.99
2019-02-14T05:00:08.820Z,99.99
2019-02-14T05:01:09.234Z,99.99
2019-02-14T05:02:09.647Z,99.99
2019-02-14T05:03:10.620Z,99.99
2019-02-14T05:04:11.581Z,99.99
2019-02-14T05:05:12.270Z,99.99
2019-02-14T05:06:13.240Z,99.99
2019-02-14T05:07:13.930Z,99.99
2019-02-14T05:08:15.039Z,99.99
2019-02-14T05:09:16.022Z,99.99
2019-02-14T05:10:16.717Z,99.99
2019-02-14T05:11:17.408Z,99.99
2019-02-14T05:12:18.126Z,99.99
2019-02-14T05:13:18.367Z,99.99
2019-02-14T05:14:19.330Z,99.99
2019-02-14T05:15:19.015Z,99.99
2019-02-14T05:16:20.145Z,99.99
2019-02-14T05:17:21.278Z,99.99
2019-02-14T05:18:22.147Z,99.99
2019-02-14T05:19:23.111Z,99.99
2019-02-14T05:20:23.520Z,99.99
2019-02-14T05:21:24.211Z,99.99
2019-02-14T05:22:25.338Z,99.99
2019-02-14T05:23:26.607Z,99.99
2019-02-14T05:24:27.022Z,99.99
2019-02-14T05:25:28.147Z,99.99
2019-02-14T05:26:28.843Z,99.99
2019-02-14T05:27:29.532Z,99.99
2019-02-14T05:28:30.654Z,99.99
2019-02-14T05:29:31.353Z,99.99
2019-02-14T05:30:32.316Z,99.99
2019-02-14T05:31:33.010Z,99.99
2019-02-14T05:32:33.418Z,99.99
2019-02-14T05:33:34.111Z,99.99
2019-02-14T05:34:35.516Z,99.99
2019-02-14T05:35:36.651Z,99.99
2019-02-14T05:36:38.490Z,99.99
2019-02-14T05:37:38.899Z,99.99
2019-02-14T05:38:40.023Z,99.99
2019-02-14T05:39:39.988Z,99.99
2019-02-14T05:40:40.955Z,99.99
2019-02-14T05:41:41.651Z,99.99
2019-02-14T05:42:43.060Z,99.99
2019-02-14T05:43:43.471Z,99.99
2019-02-14T05:44:44.437Z,99.99
2019-02-14T05:45:44.843Z,99.99
2019-02-14T05:46:45.253Z,99.99
2019-02-14T05:47:45.972Z,99.99
2019-02-14T05:48:47.371Z,99.99
2019-02-14T05:49:47.781Z,99.99
2019-02-14T05:50:48.475Z,99.99
2019-02-14T05:51:49.161Z,99.99
2019-02-14T05:52:50.405Z,99.99
2019-02-14T05:53:50.536Z,99.99
2019-02-14T05:54:51.672Z,99.99
2019-02-14T05:55:52.097Z,99.99
2019-02-14T05:56:53.062Z,99.99
2019-02-14T05:57:53.471Z,99.99
2019-02-14T05:58:54.604Z,99.99
2019-02-14T05:59:55.013Z,99.99
2019-02-14T06:00:56.271Z,99.99
2019-02-14T06:01:57.235Z,99.99
2019-02-14T06:02:57.208Z,99.99
2019-02-14T06:03:57.615Z,99.99
2019-02-14T06:04:59.025Z,99.99
2019-02-14T06:05:59.572Z,99.99
2019-02-14T06:07:02.300Z,99.99
2019-02-14T06:08:02.990Z,99.99
2019-02-14T06:09:03.241Z,99.99
2019-02-14T06:10:03.645Z,99.99
2019-02-14T06:11:04.062Z,99.99
2019-02-14T06:12:05.038Z,99.99
2019-02-14T06:13:04.999Z,99.99
2019-02-14T06:14:06.411Z,99.99
2019-02-14T06:15:07.659Z,99.99
2019-02-14T06:16:07.798Z,99.99
2019-02-14T06:17:09.378Z,99.99
2019-02-14T06:18:09.828Z,99.99
2019-02-14T06:19:10.367Z,99.99
2019-02-14T06:20:11.340Z,99.99
2019-02-14T06:21:11.762Z,99.99
2019-02-14T06:22:12.752Z,99.99
2019-02-14T06:23:13.161Z,99.99
2019-02-14T06:24:13.569Z,99.99
2019-02-14T06:25:14.917Z,99.99
2019-02-14T06:26:15.612Z,99.99
2019-02-14T06:27:17.021Z,99.99
2019-02-14T06:28:17.994Z,99.99
2019-02-14T06:29:18.360Z,99.99
2019-02-14T06:30:19.058Z,99.99
2019-02-14T06:31:20.194Z,99.62
2019-02-14T06:32:20.607Z,99.99
2019-02-14T06:33:21.311Z,99.99
2019-02-14T06:34:22.579Z,99.99
2019-02-14T06:35:23.270Z,99.99
2019-02-14T06:36:24.514Z,99.99
2019-02-14T06:37:24.935Z,99.99
2019-02-14T06:38:25.629Z,99.99
2019-02-14T06:39:26.444Z,99.99
2019-02-14T06:40:27.172Z,99.99
2019-02-14T06:41:27.867Z,99.99
2019-02-14T06:42:28.558Z,99.99
2019-02-14T06:43:29.249Z,99.99
2019-02-14T06:44:30.228Z,99.99
2019-02-14T06:45:31.916Z,99.99
2019-02-14T06:46:32.052Z,99.99
2019-02-14T06:47:33.295Z,99.99
2019-02-14T06:48:33.427Z,99.99
2019-02-14T06:49:34.392Z,99.99
2019-02-14T06:50:35.719Z,99.99
2019-02-14T06:51:36.408Z,99.99
2019-02-14T06:52:37.099Z,99.99
2019-02-14T06:53:37.813Z,99.99
2019-02-14T06:54:39.059Z,99.99
2019-02-14T06:55:38.758Z,99.99
2019-02-14T06:56:39.886Z,99.99
2019-02-14T06:57:41.135Z,99.99
2019-02-14T06:58:41.142Z,99.99
2019-02-14T06:59:42.237Z,99.99
2019-02-14T07:00:43.649Z,99.99
2019-02-14T07:01:44.266Z,99.99
2019-02-14T07:02:44.094Z,99.99
2019-02-14T07:03:44.603Z,99.99
2019-02-14T07:04:45.988Z,99.99
2019-02-14T07:05:46.761Z,99.99
2019-02-14T07:06:47.595Z,99.99
2019-02-14T07:07:48.459Z,99.99
2019-02-14T07:08:48.709Z,99.99
2019-02-14T07:09:49.109Z,99.99
2019-02-14T07:10:49.626Z,99.99
2019-02-14T07:11:50.933Z,99.99
2019-02-14T07:12:51.951Z,99.99
2019-02-14T07:13:52.827Z,99.99
2019-02-14T07:14:53.862Z,99.99
2019-02-14T07:15:54.986Z,99.99
2019-02-14T07:16:55.680Z,99.99
2019-02-14T07:17:57.375Z,99.99
2019-02-14T07:18:58.086Z,99.99
2019-02-14T07:19:58.728Z,99.99
2019-02-14T07:20:59.442Z,99.99
2019-02-14T07:22:00.856Z,99.99
2019-02-14T07:23:01.305Z,99.99
2019-02-14T07:24:02.840Z,99.99
2019-02-14T07:25:02.805Z,99.99
2019-02-14T07:26:03.777Z,99.99
2019-02-14T07:27:04.467Z,99.99
2019-02-14T07:28:05.600Z,99.99
2019-02-14T07:29:06.607Z,99.99
2019-02-14T07:30:07.181Z,99.99
2019-02-14T07:31:07.963Z,99.99
2019-02-14T07:32:08.674Z,99.99
2019-02-14T07:33:09.165Z,99.99
2019-02-14T07:34:09.585Z,99.99
2019-02-14T07:35:10.730Z,99.99
2019-02-14T07:36:11.167Z,99.99
2019-02-14T07:37:12.309Z,99.99
2019-02-14T07:38:13.354Z,99.99
2019-02-14T07:39:14.049Z,99.99
2019-02-14T07:40:14.594Z,99.99
2019-02-14T07:41:15.727Z,99.99
2019-02-14T07:42:16.425Z,99.99
2019-02-14T07:43:17.561Z,99.99
2019-02-14T07:44:18.252Z,99.99
2019-02-14T07:45:19.253Z,99.99
2019-02-14T07:46:23.654Z,99.99
2019-02-14T07:47:24.795Z,99.99
2019-02-14T07:48:25.940Z,99.99
2019-02-14T07:49:27.632Z,99.99
2019-02-14T07:50:28.390Z,99.99
2019-02-14T07:51:28.810Z,99.99
2019-02-14T07:52:29.339Z,99.99
2019-02-14T07:53:30.035Z,99.99
2019-02-14T07:54:30.734Z,99.99
2019-02-14T07:55:31.436Z,99.99
2019-02-14T07:56:31.853Z,99.99
2019-02-14T07:57:32.279Z,99.99
2019-02-14T07:58:33.262Z,99.99
2019-02-14T07:59:34.446Z,99.99
2019-02-14T08:00:35.601Z,99.99
2019-02-14T08:01:36.893Z,95.51
2019-02-14T08:02:37.592Z,95.12
2019-02-14T08:03:38.739Z,93.89
2019-02-14T08:04:39.442Z,90.33
2019-02-14T08:05:40.860Z,86.82
2019-02-14T08:06:41.832Z,86.15
2019-02-14T08:07:42.561Z,89.47
2019-02-14T08:08:42.535Z,88.81
2019-02-14T08:09:43.278Z,88.62
2019-02-14T08:10:43.541Z,88.34
2019-02-14T08:11:43.990Z,87.01
2019-02-14T08:12:45.135Z,87.1
2019-02-14T08:13:46.554Z,86.34
2019-02-14T08:14:46.806Z,85.2
2019-02-14T08:15:47.228Z,85.11
2019-02-14T08:16:47.646Z,84.72
2019-02-14T08:17:48.789Z,84.63
2019-02-14T08:18:49.597Z,85.68
2019-02-14T08:19:49.742Z,84.44
2019-02-14T08:20:50.323Z,82.54
2019-02-14T08:21:50.794Z,81.12
2019-02-14T08:22:51.536Z,81.21
2019-02-14T08:23:52.237Z,79.73
2019-02-14T08:24:53.663Z,80.11
2019-02-14T08:25:54.358Z,80.45
2019-02-14T08:26:54.338Z,80.45
2019-02-14T08:27:54.764Z,77.73
2019-02-14T08:28:55.738Z,76.69
2019-02-14T08:29:56.720Z,75.07
2019-02-14T08:30:57.124Z,75.45
2019-02-14T08:31:57.271Z,76.31
2019-02-14T08:32:58.248Z,75.45
2019-02-14T08:33:58.948Z,74.98
2019-02-14T08:35:00.149Z,75.17
2019-02-14T08:36:00.562Z,74.6
2019-02-14T08:37:01.272Z,74.88
2019-02-14T08:38:02.570Z,75.36
2019-02-14T08:39:04.934Z,76.59
2019-02-14T08:40:03.880Z,76.4
2019-02-14T08:41:05.310Z,77.26
2019-02-14T08:42:05.723Z,78.08
2019-02-14T08:43:06.425Z,77.41
2019-02-14T08:44:07.868Z,76.59
2019-02-14T08:45:08.291Z,75.45
2019-02-14T08:46:09.554Z,72.55
2019-02-14T08:47:09.981Z,70.07
2019-02-14T08:48:11.237Z,69.15
2019-02-14T08:49:11.770Z,68.87
2019-02-14T08:50:12.257Z,68.87
2019-02-14T08:51:12.818Z,68.96
2019-02-14T08:52:13.802Z,67.16
2019-02-14T08:53:14.787Z,65.58
2019-02-14T08:54:15.214Z,63.57
2019-02-14T08:55:16.194Z,62.08
2019-02-14T08:56:16.637Z,60.18
2019-02-14T08:57:17.067Z,60.3
2019-02-14T08:58:18.219Z,59.64
2019-02-14T08:59:18.925Z,60.37
2019-02-14T09:00:19.352Z,61.61
2019-02-14T09:01:20.467Z,62.85
2019-02-14T09:02:21.183Z,62.81
2019-02-14T09:03:21.890Z,61.58
2019-02-14T09:04:22.901Z,61.61
2019-02-14T09:05:23.765Z,60.94
2019-02-14T09:06:24.472Z,59.99
2019-02-14T09:07:25.470Z,60.21
2019-02-14T09:08:25.892Z,59.61
2019-02-14T09:09:26.878Z,59.7
2019-02-14T09:10:27.192Z,59.61
2019-02-14T09:11:27.303Z,59.89
2019-02-14T09:12:28.279Z,61.7
2019-02-14T09:13:28.975Z,61.67
2019-02-14T09:14:29.684Z,61.58
2019-02-14T09:15:30.662Z,62.34
2019-02-14T09:16:31.087Z,63.45
2019-02-14T09:17:31.781Z,64.21
2019-02-14T09:18:32.931Z,64.4
2019-02-14T09:19:33.463Z,64.21
2019-02-14T09:20:34.191Z,64.31
2019-02-14T09:21:35.306Z,64.34
2019-02-14T09:22:36.284Z,61.77
2019-02-14T09:23:37.262Z,61.86
2019-02-14T09:24:38.243Z,59.51
2019-02-14T09:25:38.497Z,58.84
2019-02-14T09:26:42.693Z,59.42
2019-02-14T09:26:54.453Z,59.51
2019-02-14T09:27:53.504Z,59.8
2019-02-14T09:28:54.759Z,61
2019-02-14T09:29:55.016Z,61.26
2019-02-14T09:30:55.719Z,61.96
2019-02-14T09:31:56.418Z,60.75
2019-02-14T09:32:56.918Z,57.92
2019-02-14T09:33:57.178Z,56.81
2019-02-14T09:34:57.607Z,55.79
2019-02-14T09:35:59.030Z,55.66
2019-02-14T09:36:59.180Z,53.78
2019-02-14T09:38:04.473Z,53.14
2019-02-14T09:39:04.905Z,51.26
2019-02-14T09:40:05.613Z,51.29
2019-02-14T09:41:06.320Z,50.04
2019-02-14T09:42:06.579Z,50.26
2019-02-14T09:43:07.290Z,48.85
2019-02-14T09:44:08.464Z,47.42
2019-02-14T09:45:09.617Z,47.49
2019-02-14T09:46:10.623Z,47.49
2019-02-14T09:47:11.337Z,48.07
2019-02-14T09:48:12.148Z,47.42
2019-02-14T09:49:14.351Z,47.23
2019-02-14T09:50:14.978Z,48.54
2019-02-14T09:51:15.711Z,49.69
2019-02-14T09:52:16.026Z,48.93
2019-02-14T09:53:17.082Z,48.44
2019-02-14T09:54:17.097Z,48.54
2019-02-14T09:55:18.448Z,47.42
2019-02-14T09:56:18.755Z,47.58
2019-02-14T09:57:22.558Z,47.78
2019-02-14T09:57:33.887Z,47.68
2019-02-14T09:57:46.244Z,47.58
2019-02-14T09:57:58.424Z,47.49
2019-02-14T09:58:09.556Z,47.58
2019-02-14T09:58:23.929Z,47.58
2019-02-14T09:58:32.789Z,47.39
2019-02-14T09:59:35.947Z,47.49
2019-02-14T09:59:46.998Z,48.16
2019-02-14T10:00:47.774Z,48.83
2019-02-14T10:01:48.268Z,48.54
2019-02-14T10:02:49.591Z,48.16
2019-02-14T10:03:50.953Z,47.2
2019-02-14T10:04:51.024Z,46.63
2019-02-14T10:05:52.319Z,47.03
2019-02-14T10:06:53.436Z,47.03
2019-02-14T10:07:54.275Z,47.42
2019-02-14T10:08:55.637Z,48.75
2019-02-14T10:09:56.187Z,47.97
2019-02-14T10:10:57.269Z,48.18
2019-02-14T10:11:58.004Z,47.23
2019-02-14T10:12:59.544Z,46.2
2019-02-14T10:14:00.562Z,46.31
2019-02-14T10:15:00.549Z,45.91
2019-02-14T10:16:00.846Z,46.58
2019-02-14T10:17:02.282Z,46.84
2019-02-14T10:18:03.268Z,47.32
2019-02-14T10:19:03.705Z,47.32
2019-02-14T10:20:04.415Z,47.3
2019-02-14T10:21:05.263Z,48.16
2019-02-14T10:22:05.417Z,48.83
2019-02-14T10:23:06.943Z,46.56
2019-02-14T10:24:07.573Z,46.1
2019-02-14T10:25:08.279Z,44.76
2019-02-14T10:26:09.268Z,43.83
2019-02-14T10:27:10.252Z,43.85
2019-02-14T10:28:10.404Z,43.97
2019-02-14T10:29:11.385Z,42.24
2019-02-14T10:30:12.842Z,43.3
2019-02-14T10:31:13.417Z,43.68
2019-02-14T10:32:14.135Z,43.6
2019-02-14T10:33:14.565Z,41.78
2019-02-14T10:34:15.563Z,41.78
2019-02-14T10:35:15.998Z,41.88
2019-02-14T10:36:17.059Z,41.88
2019-02-14T10:37:18.336Z,42.07
2019-02-14T10:38:23.653Z,41.71
2019-02-14T10:39:24.367Z,40.94
2019-02-14T10:40:24.605Z,40.92
2019-02-14T10:41:25.486Z,41.78
2019-02-14T10:42:26.500Z,41.78
2019-02-14T10:43:27.211Z,41.11
2019-02-14T10:44:27.382Z,42.34
2019-02-14T10:45:27.822Z,43.03
2019-02-14T10:46:28.085Z,42.36
2019-02-14T10:47:30.500Z,42.17
2019-02-14T10:48:29.827Z,41.33
2019-02-14T10:49:30.541Z,41.61
2019-02-14T10:50:31.831Z,40.2
2019-02-14T10:51:31.685Z,39.62
2019-02-14T10:52:32.398Z,39.33
2019-02-14T10:53:33.389Z,38.76
2019-02-14T10:54:33.668Z,37.99
2019-02-14T10:55:34.148Z,39.43
2019-02-14T10:56:35.421Z,39.04
2019-02-14T10:57:36.168Z,39.23
2019-02-14T10:58:37.161Z,37.7
2019-02-14T10:59:38.151Z,37.7
2019-02-14T11:00:39.659Z,39.81
2019-02-14T11:01:40.786Z,39.7
2019-02-14T11:02:41.779Z,39.23
2019-02-14T11:03:42.821Z,39.62
2019-02-14T11:04:47.740Z,39.43
2019-02-14T11:05:44.011Z,39.04
2019-02-14T11:06:44.841Z,38.87
2019-02-14T11:07:45.652Z,37.74
2019-02-14T11:08:45.826Z,39.66
2019-02-14T11:09:46.281Z,39.08
2019-02-14T11:10:47.473Z,36.8
2019-02-14T11:11:47.870Z,37.53
2019-02-14T11:12:49.147Z,40.29
2019-02-14T11:13:49.864Z,41.04
2019-02-14T11:14:51.586Z,42
2019-02-14T11:15:52.026Z,42.4
2019-02-14T11:16:52.182Z,42.4
2019-02-14T11:17:52.899Z,41.73
2019-02-14T11:18:53.890Z,41.54
2019-02-14T11:19:53.902Z,41.44
2019-02-14T11:20:56.330Z,40.77
2019-02-14T11:21:55.528Z,39.26
2019-02-14T11:22:56.238Z,41.54
2019-02-14T11:23:57.017Z,40.29
2019-02-14T11:25:00.002Z,41.04
2019-02-14T11:25:58.553Z,41.02
2019-02-14T11:26:59.551Z,41.57
2019-02-14T11:28:00.548Z,42.34
2019-02-14T11:29:02.037Z,42.53
2019-02-14T11:30:01.788Z,42.44
2019-02-14T11:31:02.227Z,41.57
2019-02-14T11:32:03.241Z,42.27
2019-02-14T11:33:04.076Z,42.24
2019-02-14T11:34:04.513Z,42.07
2019-02-14T11:35:04.944Z,41.11
2019-02-14T11:36:06.375Z,43.3
2019-02-14T11:37:07.086Z,42.44
2019-02-14T11:38:08.619Z,43.56
2019-02-14T11:39:08.650Z,42.8
2019-02-14T11:40:09.363Z,43.47
2019-02-14T11:41:09.797Z,43.26
2019-02-14T11:42:11.754Z,44.21
2019-02-14T11:43:11.859Z,43.44
2019-02-14T11:44:12.741Z,44.12
2019-02-14T11:45:12.980Z,44.95
2019-02-14T11:46:13.854Z,45.05
2019-02-14T11:47:14.164Z,43.54
2019-02-14T11:48:14.650Z,44.79
2019-02-14T11:49:16.589Z,44.71
2019-02-14T11:50:16.854Z,44.5
2019-02-14T11:51:18.264Z,46.41
2019-02-14T11:52:19.579Z,45.26
2019-02-14T11:53:20.286Z,43.83
2019-02-14T11:54:21.474Z,43.44
2019-02-14T11:55:22.612Z,43.73
2019-02-14T11:56:23.628Z,44.76
2019-02-14T11:57:24.336Z,43.52
2019-02-14T11:58:25.044Z,43.23
2019-02-14T11:59:26.036Z,45.79
2019-02-14T12:00:25.740Z,43.98
2019-02-14T12:01:26.727Z,45.41
2019-02-14T12:02:28.461Z,44.26
2019-02-14T12:03:29.003Z,45.15
2019-02-14T12:04:29.437Z,44.67
2019-02-14T12:05:30.466Z,44.29
2019-02-14T12:06:31.105Z,44.95
2019-02-14T12:07:32.059Z,44.19
2019-02-14T12:08:32.739Z,43.8
2019-02-14T12:09:33.280Z,44.29
2019-02-14T12:10:34.269Z,44.38
2019-02-14T12:11:34.461Z,45.41
2019-02-14T12:12:35.196Z,45.79
2019-02-14T12:13:35.399Z,46.15
2019-02-14T12:14:36.924Z,46.34
2019-02-14T12:15:37.077Z,47.2
2019-02-14T12:16:38.077Z,47.01
2019-02-14T12:17:39.502Z,46.99
2019-02-14T12:18:40.250Z,48.23
2019-02-14T12:19:40.681Z,48.21
2019-02-14T12:20:41.944Z,48.97
2019-02-14T12:21:42.928Z,49.04
2019-02-14T12:22:48.044Z,49.62
2019-02-14T12:23:49.194Z,49.62
2019-02-14T12:24:50.626Z,50.28
2019-02-14T12:25:51.332Z,50.38
2019-02-14T12:26:52.042Z,49.64
2019-02-14T12:27:52.471Z,50.69
2019-02-14T12:28:52.911Z,50.49
2019-02-14T12:29:54.279Z,51.57
2019-02-14T12:30:54.985Z,51.5
2019-02-14T12:31:55.417Z,48.64
2019-02-14T12:32:55.839Z,48.18
2019-02-14T12:33:59.203Z,49.14
2019-02-14T12:34:58.663Z,47.89
2019-02-14T12:35:59.380Z,46.84
2019-02-14T12:37:00.085Z,46.75
2019-02-14T12:38:00.659Z,46.58
2019-02-14T12:39:13.475Z,45.62
2019-02-14T12:40:14.631Z,45.7
2019-02-14T12:41:15.776Z,46.27
2019-02-14T12:42:16.208Z,45.98
2019-02-14T12:43:16.914Z,46.56
2019-02-14T12:44:18.066Z,47.11
2019-02-14T12:45:31.761Z,46.72
2019-02-14T12:46:32.605Z,47.78
2019-02-14T12:47:33.316Z,47.68
2019-02-14T12:48:33.810Z,47.71
2019-02-14T12:49:35.495Z,50.19
2019-02-14T12:50:37.174Z,48.75
2019-02-14T12:51:38.157Z,47.53
2019-02-14T12:52:38.584Z,46.31
2019-02-14T12:53:39.304Z,46.22
2019-02-14T12:54:42.520Z,45.05
2019-02-14T12:55:41.947Z,46.1
2019-02-14T12:56:42.649Z,48.21
2019-02-14T12:57:43.088Z,48.66
2019-02-14T12:58:44.258Z,47.13